Time;durP1;ratioP1;P1;durP2;ratioP2;P2;SDS_P1;SDS_P2;PMS_P1;PMS_P2;Temp;Humidity;BMP_temperature;BMP_pressure;BME280_temperature;BME280_humidity;BME280_pressure;Samples;Min_cycle;Max_cycle;Signal;HPM_P1;HPM_P2
2022/12/13 00:02:24;;;;;;;;;;;;;;;;;;5045606;28;19909;-78
2022/12/13 00:04:50;;;;;;;;;;;;;;;;;;5046025;28;19932;-77
2022/12/13 00:07:16;;;;;;;;;;;;;;;;;;5045515;28;20298;-77
2022/12/13 00:09:42;;;;;;;;;;;;;;;;;;5045967;28;19909;-77
2022/12/13 00:12:08;;;;;;;;;;;;;;;;;;5045439;28;20309;-77
2022/12/13 00:14:34;;;;;;;;;;;;;;;;;;5045706;28;19909;-77
2022/12/13 00:16:59;;;;;;;;;;;;;;;;;;5045597;28;20294;-77
2022/12/13 00:19:25;;;;;;;;;;;;;;;;;;5045941;28;19992;-76
2022/12/13 00:21:51;;;;;;;;;;;;;;;;;;5045654;28;19913;-76
2022/12/13 00:24:17;;;;;;;;;;;;;;;;;;5036398;28;19913;-76
2022/12/13 00:26:43;;;;;;;;;;;;;;;;;;5032544;28;19916;-76
2022/12/13 00:29:09;;;;;;;;;;;;;;;;;;5032692;28;20302;-76
2022/12/13 00:31:35;;;;;;;;;;;;;;;;;;5031408;28;19921;-76
2022/12/13 00:34:01;;;;;;;;;;;;;;;;;;5032463;28;20316;-76
2022/12/13 00:36:27;;;;;;;;;;;;;;;;;;5032232;28;19924;-76
2022/12/13 00:38:59;;;;;;;;;;;;;;;;;;5032588;28;20016;-76
2022/12/13 00:41:25;;;;;;;;;;;;;;;;;;5030336;28;19913;-76
2022/12/13 00:43:52;;;;;;;;;;;;;;;;;;5031904;28;20305;-74
2022/12/13 00:46:17;;;;;;;;;;;;;;;;;;5031296;28;20567;-75
2022/12/13 00:48:44;;;;;;;;;;;;;;;;;;5031883;28;20381;-75
2022/12/13 00:51:09;;;;;;;;;;;;;;;;;;5032000;28;19909;-74
2022/12/13 00:53:35;;;;;;;;;;;;;;;;;;5032454;28;19924;-74
2022/12/13 00:56:01;;;;;;;;;;;;;;;;;;5031978;28;19919;-74
2022/12/13 00:58:27;;;;;;;;;;;;;;;;;;5032004;28;19916;-76
2022/12/13 01:00:53;;;;;;;;;;;;;;;;;;5031302;28;20410;-74
2022/12/13 01:03:19;;;;;;;;;;;;;;;;;;5031804;28;19921;-74
2022/12/13 01:05:45;;;;;;;;;;;;;;;;;;5032378;28;19909;-73
2022/12/13 01:08:11;;;;;;;;;;;;;;;;;;5031833;28;20270;-76
2022/12/13 01:10:37;;;;;;;;;;;;;;;;;;5031750;28;19949;-76
2022/12/13 01:13:02;;;;;;;;;;;;;;;;;;5031591;28;19948;-73
2022/12/13 01:15:28;;;;;;;;;;;;;;;;;;5030881;28;19963;-72
2022/12/13 01:17:54;;;;;;;;;;;;;;;;;;5030685;28;20010;-75
2022/12/13 01:20:20;;;;;;;;;;;;;;;;;;5032066;28;19921;-75
2022/12/13 01:22:46;;;;;;;;;;;;;;;;;;5031469;28;19909;-73
2022/12/13 01:25:12;;;;;;;;;;;;;;;;;;5031387;28;19909;-73
2022/12/13 01:27:38;;;;;;;;;;;;;;;;;;5031115;28;20364;-75
2022/12/13 01:30:04;;;;;;;;;;;;;;;;;;5024104;28;20000;-73
2022/12/13 01:32:30;;;;;;;;;;;;;;;;;;5031468;28;19925;-76
2022/12/13 01:34:56;;;;;;;;;;;;;;;;;;5030441;28;19909;-75
2022/12/13 01:37:22;;;;;;;;;;;;;;;;;;5030482;28;20003;-75
2022/12/13 01:39:48;;;;;;;;;;;;;;;;;;5029905;28;19917;-73
2022/12/13 01:42:14;;;;;;;;;;;;;;;;;;5030953;28;19913;-74
2022/12/13 01:44:40;;;;;;;;;;;;;;;;;;5030591;28;20004;-75
2022/12/13 01:47:05;;;;;;;;;;;;;;;;;;5030842;28;19917;-75
2022/12/13 01:49:31;;;;;;;;;;;;;;;;;;5030617;28;20382;-75
2022/12/13 01:51:57;;;;;;;;;;;;;;;;;;5030729;28;19932;-75
2022/12/13 01:54:23;;;;;;;;;;;;;;;;;;5030598;28;20070;-75
2022/12/13 01:56:49;;;;;;;;;;;;;;;;;;5030778;28;19978;-75
2022/12/13 01:59:15;;;;;;;;;;;;;;;;;;5029964;28;19944;-74
2022/12/13 02:01:41;;;;;;;;;;;;;;;;;;5030382;28;20028;-74
2022/12/13 02:04:07;;;;;;;;;;;;;;;;;;5030732;28;20009;-74
2022/12/13 02:06:33;;;;;;;;;;;;;;;;;;5030982;28;20015;-74
2022/12/13 02:08:59;;;;;;;;;;;;;;;;;;5030372;28;19916;-73
2022/12/13 02:11:25;;;;;;;;;;;;;;;;;;5029978;28;19924;-72
2022/12/13 02:13:51;;;;;;;;;;;;;;;;;;5030159;28;19913;-73
2022/12/13 02:16:17;;;;;;;;;;;;;;;;;;5030036;28;20374;-72
2022/12/13 02:18:43;;;;;;;;;;;;;;;;;;5030242;28;19952;-72
2022/12/13 02:21:08;;;;;;;;;;;;;;;;;;5030507;28;20381;-72
2022/12/13 02:23:34;;;;;;;;;;;;;;;;;;5030254;28;19909;-72
2022/12/13 02:26:00;;;;;;;;;;;;;;;;;;5029862;28;19920;-72
2022/12/13 02:28:26;;;;;;;;;;;;;;;;;;5029353;28;19928;-72
2022/12/13 02:30:52;;;;;;;;;;;;;;;;;;5023485;28;19913;-74
2022/12/13 02:33:18;;;;;;;;;;;;;;;;;;5029794;28;19976;-73
2022/12/13 02:35:44;;;;;;;;;;;;;;;;;;5029887;28;19920;-73
2022/12/13 02:38:10;;;;;;;;;;;;;;;;;;5029814;28;19909;-72
2022/12/13 02:40:36;;;;;;;;;;;;;;;;;;5029605;28;19917;-72
2022/12/13 02:43:01;;;;;;;;;;;;;;;;;;5029609;28;19920;-71
2022/12/13 02:45:28;;;;;;;;;;;;;;;;;;5029598;28;20345;-71
2022/12/13 02:47:53;;;;;;;;;;;;;;;;;;5029324;28;19916;-72
2022/12/13 02:50:19;;;;;;;;;;;;;;;;;;5029690;28;19913;-70
2022/12/13 02:52:45;;;;;;;;;;;;;;;;;;5029997;28;19948;-71
2022/12/13 02:55:11;;;;;;;;;;;;;;;;;;5029458;28;20475;-71
2022/12/13 02:57:37;;;;;;;;;;;;;;;;;;5029178;28;19998;-70
2022/12/13 03:00:03;;;;;;;;;;;;;;;;;;5029551;28;20639;-70
2022/12/13 03:02:29;;;;;;;;;;;;;;;;;;5029155;28;19916;-70
2022/12/13 03:07:39;;;;;;;;;;;;;;;;;;5029093;28;19936;-70
2022/12/13 03:10:05;;;;;;;;;;;;;;;;;;5029629;28;20370;-70
2022/12/13 03:15:16;;;;;;;;;;;;;;;;;;5029338;28;20396;-70
2022/12/13 03:17:42;;;;;;;;;;;;;;;;;;5023268;28;19913;-70
2022/12/13 03:20:07;;;;;;;;;;;;;;;;;;5029406;28;19956;-70
2022/12/13 03:22:33;;;;;;;;;;;;;;;;;;5029210;28;19925;-70
2022/12/13 03:24:59;;;;;;;;;;;;;;;;;;5029086;28;19917;-63
2022/12/13 03:27:25;;;;;;;;;;;;;;;;;;5029207;28;19931;-71
2022/12/13 03:29:51;;;;;;;;;;;;;;;;;;5029084;28;20314;-70
2022/12/13 03:32:17;;;;;;;;;;;;;;;;;;5028956;28;19986;-70
2022/12/13 03:34:43;;;;;;;;;;;;;;;;;;5029528;28;20370;-70
2022/12/13 03:37:09;;;;;;;;;;;;;;;;;;5029252;28;19987;-70
2022/12/13 03:39:35;;;;;;;;;;;;;;;;;;5029105;28;19919;-69
2022/12/13 03:42:01;;;;;;;;;;;;;;;;;;5029058;28;19935;-69
2022/12/13 03:44:26;;;;;;;;;;;;;;;;;;5029411;28;19916;-69
2022/12/13 03:46:52;;;;;;;;;;;;;;;;;;5029132;28;19971;-69
2022/12/13 03:49:18;;;;;;;;;;;;;;;;;;5026331;28;19914;-69
2022/12/13 03:51:44;;;;;;;;;;;;;;;;;;5025694;28;19921;-69
2022/12/13 03:54:10;;;;;;;;;;;;;;;;;;5028680;28;20335;-68
2022/12/13 03:56:36;;;;;;;;;;;;;;;;;;5028855;28;19914;-69
2022/12/13 03:59:02;;;;;;;;;;;;;;;;;;5030410;28;19945;-69
2022/12/13 04:01:28;;;;;;;;;;;;;;;;;;5032688;28;19923;-69
2022/12/13 04:03:54;;;;;;;;;;;;;;;;;;5032840;28;19921;-69
2022/12/13 04:06:20;;;;;;;;;;;;;;;;;;5032594;28;19909;-70
2022/12/13 04:08:45;;;;;;;;;;;;;;;;;;5032576;28;20398;-69
2022/12/13 04:13:56;;;;;;;;;;;;;;;;;;5032307;28;19983;-68
2022/12/13 04:16:22;;;;;;;;;;;;;;;;;;5032665;28;19917;-69
2022/12/13 04:18:48;;;;;;;;;;;;;;;;;;5032553;28;20267;-69
2022/12/13 04:21:14;;;;;;;;;;;;;;;;;;5032325;28;19920;-69
2022/12/13 04:23:40;;;;;;;;;;;;;;;;;;5031650;28;19999;-69
2022/12/13 04:26:06;;;;;;;;;;;;;;;;;;5032367;28;19909;-69
2022/12/13 04:28:31;;;;;;;;;;;;;;;;;;5025132;28;19968;-69
2022/12/13 04:30:57;;;;;;;;;;;;;;;;;;5032097;28;19952;-69
2022/12/13 04:33:23;;;;;;;;;;;;;;;;;;5032539;28;19991;-67
2022/12/13 04:35:49;;;;;;;;;;;;;;;;;;5031564;28;19932;-68
2022/12/13 04:38:15;;;;;;;;;;;;;;;;;;5031744;28;19920;-68
2022/12/13 04:40:41;;;;;;;;;;;;;;;;;;5031872;28;20278;-67
2022/12/13 04:43:07;;;;;;;;;;;;;;;;;;5032005;28;19952;-68
2022/12/13 04:45:33;;;;;;;;;;;;;;;;;;5032412;28;19920;-69
2022/12/13 04:47:59;;;;;;;;;;;;;;;;;;5031860;28;20009;-68
2022/12/13 04:50:25;;;;;;;;;;;;;;;;;;5031594;28;20412;-68
2022/12/13 04:52:50;;;;;;;;;;;;;;;;;;5030944;28;20385;-69
2022/12/13 04:55:16;;;;;;;;;;;;;;;;;;5032075;28;19966;-68
2022/12/13 04:57:42;;;;;;;;;;;;;;;;;;5031397;28;19964;-68
2022/12/13 05:00:08;;;;;;;;;;;;;;;;;;5031475;28;19967;-66
2022/12/13 05:02:34;;;;;;;;;;;;;;;;;;5031775;28;20294;-68
2022/12/13 05:05:00;;;;;;;;;;;;;;;;;;5031415;28;20378;-69
2022/12/13 05:07:26;;;;;;;;;;;;;;;;;;5025244;28;19909;-68
2022/12/13 05:09:52;;;;;;;;;;;;;;;;;;5031871;28;20362;-68
2022/12/13 05:12:18;;;;;;;;;;;;;;;;;;5031158;28;19967;-68
2022/12/13 05:14:44;;;;;;;;;;;;;;;;;;5031555;28;19913;-68
2022/12/13 05:17:10;;;;;;;;;;;;;;;;;;5030974;28;19999;-68
2022/12/13 05:19:36;;;;;;;;;;;;;;;;;;5031592;28;19963;-68
2022/12/13 05:22:02;;;;;;;;;;;;;;;;;;5030700;28;19913;-68
2022/12/13 05:24:27;;;;;;;;;;;;;;;;;;5031052;28;20000;-68
2022/12/13 05:26:53;;;;;;;;;;;;;;;;;;5024127;28;19910;-68
2022/12/13 05:29:19;;;;;;;;;;;;;;;;;;5031142;28;19917;-67
2022/12/13 05:31:45;;;;;;;;;;;;;;;;;;5030687;28;19952;-68
2022/12/13 05:34:11;;;;;;;;;;;;;;;;;;5031028;28;19917;-68
2022/12/13 05:36:37;;;;;;;;;;;;;;;;;;5030641;28;19913;-68
2022/12/13 05:39:03;;;;;;;;;;;;;;;;;;5030995;28;19913;-68
2022/12/13 05:41:29;;;;;;;;;;;;;;;;;;5031003;28;19959;-67
2022/12/13 05:43:55;;;;;;;;;;;;;;;;;;5030791;28;20340;-68
2022/12/13 05:46:21;;;;;;;;;;;;;;;;;;5030604;28;20433;-66
2022/12/13 05:48:46;;;;;;;;;;;;;;;;;;5023883;28;20000;-66
2022/12/13 05:51:12;;;;;;;;;;;;;;;;;;5030456;28;19910;-67
2022/12/13 05:53:38;;;;;;;;;;;;;;;;;;5030534;28;19917;-66
2022/12/13 05:56:04;;;;;;;;;;;;;;;;;;5031163;28;19959;-66
2022/12/13 05:58:30;;;;;;;;;;;;;;;;;;5030757;28;19909;-66
2022/12/13 06:00:56;;;;;;;;;;;;;;;;;;5030625;28;20382;-66
2022/12/13 06:03:22;;;;;;;;;;;;;;;;;;5030182;28;19916;-66
2022/12/13 06:05:48;;;;;;;;;;;;;;;;;;5030194;28;20471;-66
2022/12/13 06:08:14;;;;;;;;;;;;;;;;;;5030298;28;19952;-67
2022/12/13 06:10:39;;;;;;;;;;;;;;;;;;5029605;28;20393;-66
2022/12/13 06:13:05;;;;;;;;;;;;;;;;;;5029930;28;19947;-66
2022/12/13 06:15:31;;;;;;;;;;;;;;;;;;5030008;28;20400;-66
2022/12/13 06:17:57;;;;;;;;;;;;;;;;;;5030031;28;19913;-67
2022/12/13 06:20:23;;;;;;;;;;;;;;;;;;5030179;28;20427;-66
2022/12/13 06:22:49;;;;;;;;;;;;;;;;;;5030054;28;19913;-67
2022/12/13 06:25:15;;;;;;;;;;;;;;;;;;5029954;28;20334;-66
2022/12/13 06:27:41;;;;;;;;;;;;;;;;;;5029793;28;19913;-66
2022/12/13 06:30:07;;;;;;;;;;;;;;;;;;5030207;28;19909;-67
2022/12/13 06:32:33;;;;;;;;;;;;;;;;;;5029777;28;19921;-67
2022/12/13 06:34:59;;;;;;;;;;;;;;;;;;5029744;28;19998;-66
2022/12/13 06:37:24;;;;;;;;;;;;;;;;;;5030006;28;19939;-66
2022/12/13 06:39:50;;;;;;;;;;;;;;;;;;5029667;28;19918;-67
2022/12/13 06:42:16;;;;;;;;;;;;;;;;;;5029623;28;19920;-67
2022/12/13 06:44:42;;;;;;;;;;;;;;;;;;5029392;28;20396;-67
2022/12/13 06:47:08;;;;;;;;;;;;;;;;;;5029403;28;19924;-66
2022/12/13 06:49:34;;;;;;;;;;;;;;;;;;5029249;28;20366;-66
2022/12/13 06:52:00;;;;;;;;;;;;;;;;;;5029497;28;20381;-65
2022/12/13 06:54:26;;;;;;;;;;;;;;;;;;5023024;28;19913;-65
2022/12/13 06:56:52;;;;;;;;;;;;;;;;;;5029853;28;20294;-66
2022/12/13 06:59:18;;;;;;;;;;;;;;;;;;5029446;28;19920;-66
2022/12/13 07:01:43;;;;;;;;;;;;;;;;;;5029308;28;19913;-65
2022/12/13 07:04:09;;;;;;;;;;;;;;;;;;5029239;28;19920;-65
2022/12/13 07:06:35;;;;;;;;;;;;;;;;;;5029384;28;19909;-65
2022/12/13 07:09:01;;;;;;;;;;;;;;;;;;5028257;28;19920;-67
2022/12/13 07:11:27;;;;;;;;;;;;;;;;;;5029459;28;19916;-67
2022/12/13 07:13:53;;;;;;;;;;;;;;;;;;5029448;28;19921;-66
2022/12/13 07:16:19;;;;;;;;;;;;;;;;;;5029811;28;19976;-67
2022/12/13 07:18:45;;;;;;;;;;;;;;;;;;5029336;28;19913;-67
2022/12/13 07:21:11;;;;;;;;;;;;;;;;;;5026753;28;19909;-67
2022/12/13 07:23:37;;;;;;;;;;;;;;;;;;5025030;28;19952;-67
2022/12/13 07:26:02;;;;;;;;;;;;;;;;;;5029424;28;19913;-66
2022/12/13 07:28:28;;;;;;;;;;;;;;;;;;5029140;28;20764;-67
2022/12/13 07:30:54;;;;;;;;;;;;;;;;;;5029007;28;19921;-67
2022/12/13 07:33:20;;;;;;;;;;;;;;;;;;5028897;28;19921;-67
2022/12/13 07:35:46;;;;;;;;;;;;;;;;;;5033063;28;20436;-67
2022/12/13 07:38:12;;;;;;;;;;;;;;;;;;5033604;28;19944;-67
2022/12/13 07:40:38;;;;;;;;;;;;;;;;;;5033154;28;20374;-67
2022/12/13 07:43:04;;;;;;;;;;;;;;;;;;5033028;28;19956;-66
2022/12/13 07:45:30;;;;;;;;;;;;;;;;;;5033311;28;19968;-66
2022/12/13 07:47:56;;;;;;;;;;;;;;;;;;5032578;28;19983;-67
2022/12/13 07:50:22;;;;;;;;;;;;;;;;;;5033089;28;20416;-67
2022/12/13 07:52:48;;;;;;;;;;;;;;;;;;5032233;28;20390;-66
2022/12/13 07:55:14;;;;;;;;;;;;;;;;;;5033236;28;19913;-66
2022/12/13 07:57:40;;;;;;;;;;;;;;;;;;5032454;28;19909;-65
2022/12/13 08:00:06;;;;;;;;;;;;;;;;;;5031684;28;20012;-72
2022/12/13 08:02:32;;;;;;;;;;;;;;;;;;5031500;28;19964;-70
2022/12/13 08:04:57;;;;;;;;;;;;;;;;;;5033213;28;19991;-72
2022/12/13 08:07:23;;;;;;;;;;;;;;;;;;5031968;28;19951;-71
2022/12/13 08:09:49;;;;;;;;;;;;;;;;;;5030903;28;20378;-75
2022/12/13 08:12:15;;;;;;;;;;;;;;;;;;5031963;28;19921;-76
2022/12/13 08:14:41;;;;;;;;;;;;;;;;;;5025344;28;19959;-77
2022/12/13 08:17:07;;;;;;;;;;;;;;;;;;5031837;28;20420;-79
2022/12/13 08:19:33;;;;;;;;;;;;;;;;;;5028486;28;19920;-79
2022/12/13 08:21:59;;;;;;;;;;;;;;;;;;5032051;28;20284;-75
2022/12/13 08:24:25;;;;;;;;;;;;;;;;;;5032093;28;20367;-79
2022/12/13 08:26:51;;;;;;;;;;;;;;;;;;5028878;28;20342;-77
2022/12/13 08:29:16;;;;;;;;;;;;;;;;;;5022957;28;19914;-78
2022/12/13 08:31:42;;;;;;;;;;;;;;;;;;5028823;28;19917;-79
2022/12/13 08:34:08;;;;;;;;;;;;;;;;;;5034783;28;19952;-78
2022/12/13 08:36:34;;;;;;;;;;;;;;;;;;5029620;28;19913;-76
2022/12/13 08:39:01;;;;;;;;;;;;;;;;;;5029204;28;19913;-75
2022/12/13 08:41:27;;;;;;;;;;;;;;;;;;5028388;28;20020;-75
2022/12/13 08:43:53;;;;;;;;;;;;;;;;;;5029424;28;19991;-76
2022/12/13 08:46:19;;;;;;;;;;;;;;;;;;5028900;28;19913;-78
2022/12/13 08:48:45;;;;;;;;;;;;;;;;;;5029879;28;19913;-76
2022/12/13 08:51:11;;;;;;;;;;;;;;;;;;5029660;28;19917;-67
2022/12/13 08:53:37;;;;;;;;;;;;;;;;;;5029652;28;19921;-76
2022/12/13 08:56:03;;;;;;;;;;;;;;;;;;5030100;28;19924;-75
2022/12/13 08:58:28;;;;;;;;;;;;;;;;;;5029624;28;19917;-76
2022/12/13 09:00:54;;;;;;;;;;;;;;;;;;5029625;28;19917;-75
2022/12/13 09:03:20;;;;;;;;;;;;;;;;;;5029078;28;20630;-75
2022/12/13 09:05:46;;;;;;;;;;;;;;;;;;5029564;28;21414;-77
2022/12/13 09:08:12;;;;;;;;;;;;;;;;;;5029404;28;19967;-77
2022/12/13 09:10:38;;;;;;;;;;;;;;;;;;5029150;28;20408;-76
2022/12/13 09:13:04;;;;;;;;;;;;;;;;;;5028724;28;19976;-75
2022/12/13 09:15:30;;;;;;;;;;;;;;;;;;5030010;28;20739;-75
2022/12/13 09:17:56;;;;;;;;;;;;;;;;;;5028750;28;19940;-76
2022/12/13 09:20:21;;;;;;;;;;;;;;;;;;5025115;28;19970;-78
2022/12/13 09:22:47;;;;;;;;;;;;;;;;;;5027884;28;19978;-77
2022/12/13 09:25:13;;;;;;;;;;;;;;;;;;5029166;28;20448;-77
2022/12/13 09:27:39;;;;;;;;;;;;;;;;;;5028300;28;19984;-78
2022/12/13 09:30:06;;;;;;;;;;;;;;;;;;5029116;28;19917;-76
2022/12/13 09:32:32;;;;;;;;;;;;;;;;;;5029918;28;19952;-77
2022/12/13 09:34:58;;;;;;;;;;;;;;;;;;5029631;28;20365;-77
2022/12/13 09:37:24;;;;;;;;;;;;;;;;;;5025910;28;19917;-72
2022/12/13 09:39:50;;;;;;;;;;;;;;;;;;5029279;28;19914;-77
2022/12/13 09:42:16;;;;;;;;;;;;;;;;;;5028504;28;19924;-78
2022/12/13 09:44:42;;;;;;;;;;;;;;;;;;5028408;28;20287;-77
2022/12/13 09:47:08;;;;;;;;;;;;;;;;;;5029334;28;20006;-77
2022/12/13 09:49:33;;;;;;;;;;;;;;;;;;5025665;28;19944;-78
2022/12/13 09:52:00;;;;;;;;;;;;;;;;;;5029065;28;19924;-78
2022/12/13 09:54:26;;;;;;;;;;;;;;;;;;5029745;28;19966;-78
2022/12/13 09:56:52;;;;;;;;;;;;;;;;;;5028698;28;20344;-76
2022/12/13 09:59:18;;;;;;;;;;;;;;;;;;5030342;28;19948;-76
2022/12/13 10:01:44;;;;;;;;;;;;;;;;;;5029857;28;20327;-75
2022/12/13 10:04:10;;;;;;;;;;;;;;;;;;5030497;28;19913;-78
2022/12/13 10:06:35;;;;;;;;;;;;;;;;;;5030149;28;19987;-75
2022/12/13 10:09:01;;;;;;;;;;;;;;;;;;5023463;28;20008;-76
2022/12/13 10:11:28;;;;;;;;;;;;;;;;;;5029154;28;20067;-76
2022/12/13 10:13:53;;;;;;;;;;;;;;;;;;5029971;28;19921;-76
2022/12/13 10:16:19;;;;;;;;;;;;;;;;;;5029916;28;19916;-76
2022/12/13 10:18:45;;;;;;;;;;;;;;;;;;5030335;28;19913;-77
2022/12/13 10:21:11;;;;;;;;;;;;;;;;;;5030054;28;19963;-76
2022/12/13 10:23:37;;;;;;;;;;;;;;;;;;5030252;28;19920;-76
2022/12/13 10:26:03;;;;;;;;;;;;;;;;;;5029490;28;19952;-76
2022/12/13 10:28:29;;;;;;;;;;;;;;;;;;5029980;28;20019;-77
2022/12/13 10:30:55;;;;;;;;;;;;;;;;;;5030556;28;19909;-76
2022/12/13 10:33:21;;;;;;;;;;;;;;;;;;5029824;28;19921;-77
2022/12/13 10:35:47;;;;;;;;;;;;;;;;;;5029821;28;19913;-76
2022/12/13 10:38:15;;;;;;;;;;;;;;;;;;5029756;28;19924;-76
2022/12/13 10:40:45;;;;;;;;;;;;;;;;;;5029728;28;19924;-76
2022/12/13 10:43:11;;;;;;;;;;;;;;;;;;5030104;28;19971;-76
2022/12/13 10:45:37;;;;;;;;;;;;;;;;;;5029729;28;20618;-75
2022/12/13 10:48:03;;;;;;;;;;;;;;;;;;5030957;28;19913;-76
2022/12/13 10:50:29;;;;;;;;;;;;;;;;;;5030316;28;19909;-76
2022/12/13 10:52:55;;;;;;;;;;;;;;;;;;5029688;28;19921;-76
2022/12/13 10:55:20;;;;;;;;;;;;;;;;;;5029038;28;19920;-76
2022/12/13 10:57:46;;;;;;;;;;;;;;;;;;5029995;28;19909;-76
2022/12/13 11:00:12;;;;;;;;;;;;;;;;;;5029357;28;19913;-75
2022/12/13 11:02:38;;;;;;;;;;;;;;;;;;5029843;28;19918;-76
2022/12/13 11:05:04;;;;;;;;;;;;;;;;;;5028990;28;20286;-74
2022/12/13 11:07:30;;;;;;;;;;;;;;;;;;5022819;28;19917;-74
2022/12/13 11:09:56;;;;;;;;;;;;;;;;;;5027526;28;20004;-74
2022/12/13 11:12:22;;;;;;;;;;;;;;;;;;5026748;28;20421;-74
2022/12/13 11:14:48;;;;;;;;;;;;;;;;;;5027425;28;19924;-73
2022/12/13 11:17:13;;;;;;;;;;;;;;;;;;5027921;28;20348;-73
2022/12/13 11:19:39;;;;;;;;;;;;;;;;;;5027679;28;19923;-75
2022/12/13 11:22:05;;;;;;;;;;;;;;;;;;5027682;28;19920;-73
2022/12/13 11:24:31;;;;;;;;;;;;;;;;;;5026905;28;20365;-74
2022/12/13 11:26:57;;;;;;;;;;;;;;;;;;5024817;28;19964;-73
2022/12/13 11:29:23;;;;;;;;;;;;;;;;;;5024366;28;19964;-73
2022/12/13 11:31:49;;;;;;;;;;;;;;;;;;5026547;28;20542;-72
2022/12/13 11:34:15;;;;;;;;;;;;;;;;;;5027430;28;19924;-72
2022/12/13 11:36:41;;;;;;;;;;;;;;;;;;5025863;28;19935;-73
2022/12/13 11:39:07;;;;;;;;;;;;;;;;;;5024219;28;20396;-73
2022/12/13 11:41:33;;;;;;;;;;;;;;;;;;5026672;28;20374;-74
2022/12/13 11:43:59;;;;;;;;;;;;;;;;;;5026285;28;20031;-73
2022/12/13 11:46:24;;;;;;;;;;;;;;;;;;5026691;28;19920;-73
2022/12/13 11:48:50;;;;;;;;;;;;;;;;;;5027057;28;20008;-71
2022/12/13 11:51:16;;;;;;;;;;;;;;;;;;5026811;28;19940;-73
2022/12/13 11:53:42;;;;;;;;;;;;;;;;;;5026282;28;19929;-72
2022/12/13 11:56:08;;;;;;;;;;;;;;;;;;5026867;28;19917;-72
2022/12/13 11:58:34;;;;;;;;;;;;;;;;;;5026718;28;20457;-73
2022/12/13 12:01:00;;;;;;;;;;;;;;;;;;5026628;28;19924;-69
2022/12/13 12:03:26;;;;;;;;;;;;;;;;;;5027409;28;20289;-72
2022/12/13 12:05:52;;;;;;;;;;;;;;;;;;5025956;28;19949;-72
2022/12/13 12:08:18;;;;;;;;;;;;;;;;;;5026316;28;19923;-72
2022/12/13 12:10:44;;;;;;;;;;;;;;;;;;5026508;28;20011;-70
2022/12/13 12:13:10;;;;;;;;;;;;;;;;;;5026585;28;19925;-69
2022/12/13 12:15:35;;;;;;;;;;;;;;;;;;5026195;28;20087;-72
2022/12/13 12:18:01;;;;;;;;;;;;;;;;;;5026730;28;19940;-71
2022/12/13 12:20:27;;;;;;;;;;;;;;;;;;5027555;28;19924;-70
2022/12/13 12:22:53;;;;;;;;;;;;;;;;;;5029613;28;19923;-69
2022/12/13 12:25:19;;;;;;;;;;;;;;;;;;5030410;28;19924;-67
2022/12/13 12:27:45;;;;;;;;;;;;;;;;;;5030404;28;19917;-69
2022/12/13 12:30:11;;;;;;;;;;;;;;;;;;5030410;28;19962;-68
2022/12/13 12:32:37;;;;;;;;;;;;;;;;;;5029690;28;20421;-69
2022/12/13 12:35:03;;;;;;;;;;;;;;;;;;5030059;28;19921;-68
2022/12/13 12:37:29;;;;;;;;;;;;;;;;;;5029775;28;19937;-68
2022/12/13 12:39:55;;;;;;;;;;;;;;;;;;5030097;28;19928;-69
2022/12/13 12:42:20;;;;;;;;;;;;;;;;;;5028445;28;19924;-69
2022/12/13 12:44:46;;;;;;;;;;;;;;;;;;5029034;28;20006;-69
2022/12/13 12:47:12;;;;;;;;;;;;;;;;;;5030046;28;19923;-68
2022/12/13 12:49:39;;;;;;;;;;;;;;;;;;5030058;28;19920;-68
2022/12/13 12:52:04;;;;;;;;;;;;;;;;;;5029547;28;19917;-69
2022/12/13 12:54:30;;;;;;;;;;;;;;;;;;5029092;28;20042;-67
2022/12/13 12:56:56;;;;;;;;;;;;;;;;;;5030188;28;19917;-68
2022/12/13 12:59:22;;;;;;;;;;;;;;;;;;5029543;28;19921;-68
2022/12/13 13:01:48;;;;;;;;;;;;;;;;;;5028863;28;20063;-68
2022/12/13 13:04:14;;;;;;;;;;;;;;;;;;5029713;28;19916;-66
2022/12/13 13:06:40;;;;;;;;;;;;;;;;;;5033651;28;19924;-68
2022/12/13 13:09:06;;;;;;;;;;;;;;;;;;5029893;28;20404;-68
2022/12/13 13:11:32;;;;;;;;;;;;;;;;;;5029375;28;19928;-68
2022/12/13 13:13:58;;;;;;;;;;;;;;;;;;5029502;28;20047;-68
2022/12/13 13:16:24;;;;;;;;;;;;;;;;;;5028730;28;19920;-67
2022/12/13 13:18:50;;;;;;;;;;;;;;;;;;5029502;28;20710;-67
2022/12/13 13:21:16;;;;;;;;;;;;;;;;;;5029320;28;20004;-68
2022/12/13 13:23:41;;;;;;;;;;;;;;;;;;5029102;28;19924;-67
2022/12/13 13:26:07;;;;;;;;;;;;;;;;;;5026589;28;19917;-67
2022/12/13 13:28:33;;;;;;;;;;;;;;;;;;5028862;28;20002;-66
2022/12/13 13:30:59;;;;;;;;;;;;;;;;;;5029205;28;19913;-67
2022/12/13 13:33:25;;;;;;;;;;;;;;;;;;5029315;28;19931;-67
2022/12/13 13:35:52;;;;;;;;;;;;;;;;;;5028763;28;19971;-67
2022/12/13 13:38:18;;;;;;;;;;;;;;;;;;5029418;28;20637;-67
2022/12/13 13:40:44;;;;;;;;;;;;;;;;;;5028912;28;20430;-68
2022/12/13 13:43:09;;;;;;;;;;;;;;;;;;5026109;28;19917;-67
2022/12/13 13:45:36;;;;;;;;;;;;;;;;;;5028787;28;19917;-67
2022/12/13 13:48:02;;;;;;;;;;;;;;;;;;5028733;28;20378;-66
2022/12/13 13:50:28;;;;;;;;;;;;;;;;;;5028432;28;19918;-68
2022/12/13 13:52:54;;;;;;;;;;;;;;;;;;5028381;28;19932;-68
2022/12/13 13:55:19;;;;;;;;;;;;;;;;;;5028911;28;19943;-68
2022/12/13 13:57:45;;;;;;;;;;;;;;;;;;5028209;28;19923;-67
2022/12/13 14:00:11;;;;;;;;;;;;;;;;;;5028533;28;20386;-67
2022/12/13 14:02:37;;;;;;;;;;;;;;;;;;5029811;28;19963;-66
2022/12/13 14:05:03;;;;;;;;;;;;;;;;;;5028402;28;20340;-65
2022/12/13 14:07:29;;;;;;;;;;;;;;;;;;5028016;28;20000;-67
2022/12/13 14:09:55;;;;;;;;;;;;;;;;;;5028480;28;19921;-68
2022/12/13 14:12:21;;;;;;;;;;;;;;;;;;5028125;28;20012;-67
2022/12/13 14:14:46;;;;;;;;;;;;;;;;;;5025969;28;20344;-65
2022/12/13 14:17:12;;;;;;;;;;;;;;;;;;5023629;28;19995;-67
2022/12/13 14:19:39;;;;;;;;;;;;;;;;;;5027512;28;20303;-68
2022/12/13 14:22:04;;;;;;;;;;;;;;;;;;5028719;28;19913;-66
2022/12/13 14:24:30;;;;;;;;;;;;;;;;;;5027726;28;20424;-65
2022/12/13 14:26:56;;;;;;;;;;;;;;;;;;5027335;28;19913;-66
2022/12/13 14:29:22;;;;;;;;;;;;;;;;;;5027881;28;19967;-66
2022/12/13 14:31:48;;;;;;;;;;;;;;;;;;5027426;28;20359;-67
2022/12/13 14:34:14;;;;;;;;;;;;;;;;;;5027467;28;20020;-65
2022/12/13 14:36:40;;;;;;;;;;;;;;;;;;5027850;28;19945;-66
2022/12/13 14:39:06;;;;;;;;;;;;;;;;;;5028242;28;19917;-65
2022/12/13 14:41:32;;;;;;;;;;;;;;;;;;5027378;28;19913;-66
2022/12/13 14:43:58;;;;;;;;;;;;;;;;;;5026850;28;19935;-66
2022/12/13 14:46:24;;;;;;;;;;;;;;;;;;5023735;28;20735;-66
2022/12/13 14:48:51;;;;;;;;;;;;;;;;;;5026903;28;19921;-66
2022/12/13 14:51:17;;;;;;;;;;;;;;;;;;5027617;28;20012;-66
2022/12/13 14:53:43;;;;;;;;;;;;;;;;;;5027175;28;20023;-65
2022/12/13 14:56:09;;;;;;;;;;;;;;;;;;5025190;28;19917;-66
2022/12/13 14:58:37;;;;;;;;;;;;;;;;;;5027306;28;19924;-67
2022/12/13 15:01:03;;;;;;;;;;;;;;;;;;5025276;28;19917;-66
2022/12/13 15:03:29;;;;;;;;;;;;;;;;;;5027631;28;19913;-66
2022/12/13 15:05:55;;;;;;;;;;;;;;;;;;5026687;28;19921;-67
2022/12/13 15:08:21;;;;;;;;;;;;;;;;;;5027402;28;20306;-67
2022/12/13 15:10:47;;;;;;;;;;;;;;;;;;5025599;28;19948;-66
2022/12/13 15:13:13;;;;;;;;;;;;;;;;;;5026648;28;19925;-66
2022/12/13 15:15:39;;;;;;;;;;;;;;;;;;5026265;28;19913;-65
2022/12/13 15:18:06;;;;;;;;;;;;;;;;;;5027392;28;19956;-66
2022/12/13 15:20:32;;;;;;;;;;;;;;;;;;5026995;28;19939;-67
2022/12/13 15:22:58;;;;;;;;;;;;;;;;;;5027719;28;19936;-67
2022/12/13 15:25:23;;;;;;;;;;;;;;;;;;5026003;28;20366;-67
2022/12/13 15:27:49;;;;;;;;;;;;;;;;;;5027158;28;20322;-67
2022/12/13 15:30:15;;;;;;;;;;;;;;;;;;5026635;28;19917;-67
2022/12/13 15:32:41;;;;;;;;;;;;;;;;;;5026640;28;20263;-66
2022/12/13 15:35:07;;;;;;;;;;;;;;;;;;5026485;28;20004;-67
2022/12/13 15:37:33;;;;;;;;;;;;;;;;;;5030094;28;20291;-66
2022/12/13 15:39:59;;;;;;;;;;;;;;;;;;5024166;28;19967;-66
2022/12/13 15:42:25;;;;;;;;;;;;;;;;;;5024395;28;19913;-68
2022/12/13 15:44:52;;;;;;;;;;;;;;;;;;5026214;28;19913;-66
2022/12/13 15:47:18;;;;;;;;;;;;;;;;;;5026300;28;19917;-67
2022/12/13 15:49:44;;;;;;;;;;;;;;;;;;5026916;28;19924;-67
2022/12/13 15:52:10;;;;;;;;;;;;;;;;;;5026861;28;20463;-66
2022/12/13 15:54:36;;;;;;;;;;;;;;;;;;5025642;28;20157;-66
2022/12/13 15:57:02;;;;;;;;;;;;;;;;;;5031021;28;19964;-66
2022/12/13 15:59:28;;;;;;;;;;;;;;;;;;5030525;28;19959;-67
2022/12/13 16:01:54;;;;;;;;;;;;;;;;;;5030383;28;19917;-67
2022/12/13 16:04:20;;;;;;;;;;;;;;;;;;5030777;28;20932;-67
2022/12/13 16:06:46;;;;;;;;;;;;;;;;;;5030820;28;20024;-67
2022/12/13 16:09:12;;;;;;;;;;;;;;;;;;5030764;28;20020;-68
2022/12/13 16:11:38;;;;;;;;;;;;;;;;;;5030406;28;20345;-67
2022/12/13 16:14:04;;;;;;;;;;;;;;;;;;5028797;28;19925;-67
2022/12/13 16:16:30;;;;;;;;;;;;;;;;;;5027430;28;19952;-64
2022/12/13 16:18:56;;;;;;;;;;;;;;;;;;5030532;28;20515;-68
2022/12/13 16:21:22;;;;;;;;;;;;;;;;;;5030510;28;20321;-66
2022/12/13 16:23:48;;;;;;;;;;;;;;;;;;5030072;28;19928;-66
2022/12/13 16:26:14;;;;;;;;;;;;;;;;;;5030997;28;19920;-68
2022/12/13 16:28:40;;;;;;;;;;;;;;;;;;5029549;28;19917;-67
2022/12/13 16:31:05;;;;;;;;;;;;;;;;;;5030136;28;20413;-68
2022/12/13 16:33:31;;;;;;;;;;;;;;;;;;5029136;28;19921;-67
2022/12/13 16:35:57;;;;;;;;;;;;;;;;;;5029555;28;20294;-68
2022/12/13 16:38:24;;;;;;;;;;;;;;;;;;5030227;28;19957;-68
2022/12/13 16:40:50;;;;;;;;;;;;;;;;;;5029684;28;20003;-67
2022/12/13 16:43:16;;;;;;;;;;;;;;;;;;5029602;28;20466;-68
2022/12/13 16:45:42;;;;;;;;;;;;;;;;;;5030282;28;19967;-66